Time;durP1;ratioP1;P1;durP2;ratioP2;P2;SDS_P1;SDS_P2;PMS_P1;PMS_P2;Temp;Humidity;BMP_temperature;BMP_pressure;BME280_temperature;BME280_humidity;BME280_pressure;Samples;Min_cycle;Max_cycle;Signal;HPM_P1;HPM_P2
2022/01/13 00:02:04;;;;;;;;;;;-2.20;99.90;;;-3.40;100.00;97715.00;10560881;27;1860;-68
2022/01/13 00:07:10;;;;;;;;;;;-2.30;99.90;;;-3.20;100.00;97693.94;10519307;28;1896;-68
2022/01/13 00:12:15;;;;;;;;;;;-2.20;99.90;;;-2.95;100.00;97695.97;10520807;28;1940;-68
2022/01/13 00:17:31;;;;;;;;;;;-2.00;99.90;;;-2.98;100.00;97706.78;10551732;27;1906;-70
2022/01/13 00:22:51;;;;;;;;;;;-1.80;99.90;;;-3.09;100.00;97714.84;10522444;28;1906;-68
2022/01/13 00:27:58;;;;;;;;;;;-1.90;99.90;;;-3.10;100.00;97716.63;10519097;28;1909;-68
2022/01/13 00:33:02;;;;;;;;;;;-1.90;99.90;;;-3.00;100.00;97724.50;10529257;28;1921;-68
2022/01/13 00:38:05;;;;;;;;;;;-1.90;99.90;;;-3.00;100.00;97721.88;10526259;28;1988;-68
2022/01/13 00:43:08;;;;;;;;;;;-1.90;99.90;;;-2.92;100.00;97743.06;10526300;28;1521;-68
2022/01/13 00:48:11;;;;;;;;;;;-2.80;99.90;;;-3.11;100.00;97735.22;10523409;28;1581;-68
2022/01/13 00:53:14;;;;;;;;;;;-1.90;99.90;;;-2.95;100.00;97737.25;10520975;28;1832;-68
2022/01/13 00:58:17;;;;;;;;;;;-1.90;99.90;;;-3.06;100.00;97735.59;10519796;28;1918;-68
2022/01/13 01:03:20;;;;;;;;;;;-1.90;99.90;;;-2.75;100.00;97729.16;10515963;28;1929;-67
2022/01/13 01:08:23;;;;;;;;;;;-1.80;99.90;;;-2.60;100.00;97729.56;10518092;28;1847;-68
2022/01/13 01:13:29;;;;;;;;;;;-0.30;99.90;;;-2.76;100.00;97716.97;10488491;28;2406;-68
2022/01/13 01:18:38;;;;;;;;;;;-1.60;99.90;;;-2.64;100.00;97732.63;10495005;28;2211;-69
2022/01/13 01:23:57;;;;;;;;;;;-1.60;99.90;;;-2.55;100.00;97729.94;10501623;28;1772;-67
2022/01/13 01:29:06;;;;;;;;;;;-1.40;99.90;;;-2.77;100.00;97739.00;10495472;28;1866;-68
2022/01/13 01:34:22;;;;;;;;;;;-1.50;99.90;;;-2.51;100.00;97725.22;10524739;28;1724;-68
2022/01/13 01:39:25;;;;;;;;;;;-1.50;99.90;;;-2.30;100.00;97735.53;10498352;28;1886;-69
2022/01/13 01:44:32;;;;;;;;;;;-1.30;99.90;;;-2.36;100.00;97726.41;10502176;28;3458;-67
2022/01/13 01:49:39;;;;;;;;;;;-1.30;99.90;;;-2.34;100.00;97727.09;10501284;28;1933;-68
2022/01/13 01:54:42;;;;;;;;;;;-1.20;99.90;;;-2.47;100.00;97737.16;10503290;28;1950;-68
2022/01/13 01:59:45;;;;;;;;;;;-1.30;99.90;;;-2.35;100.00;97730.72;10496980;28;1982;-68
2022/01/13 02:04:49;;;;;;;;;;;-1.30;99.90;;;-2.40;100.00;97727.69;10492334;28;1966;-68
2022/01/13 02:09:53;;;;;;;;;;;-1.20;99.90;;;-2.45;100.00;97722.03;10487276;28;2026;-69
2022/01/13 02:14:59;;;;;;;;;;;-1.30;99.90;;;-2.41;100.00;97714.66;10497995;28;2136;-69
2022/01/13 02:20:04;;;;;;;;;;;-1.30;99.90;;;-2.63;100.00;97721.94;10515806;28;2010;-68
2022/01/13 02:25:08;;;;;;;;;;;-1.30;99.90;;;-2.63;100.00;97715.84;10494117;28;1963;-68
2022/01/13 02:30:13;;;;;;;;;;;-1.40;99.90;;;-2.45;100.00;97719.38;10486345;28;1891;-68
2022/01/13 02:35:16;;;;;;;;;;;-1.40;99.90;;;-2.48;100.00;97709.16;10486694;28;1884;-69
2022/01/13 02:40:19;;;;;;;;;;;-1.30;99.90;;;-2.28;100.00;97705.47;10517705;28;1985;-68
2022/01/13 02:45:31;;;;;;;;;;;-1.20;99.90;;;-2.19;100.00;97704.56;10487431;28;1918;-68
2022/01/13 02:50:34;;;;;;;;;;;-1.20;99.90;;;-2.03;100.00;97711.03;10484709;28;1856;-67
2022/01/13 02:55:37;;;;;;;;;;;-1.10;99.90;;;-2.07;100.00;97717.56;10489700;28;1926;-68
2022/01/13 03:00:40;;;;;;;;;;;-1.10;99.90;;;-2.44;100.00;97713.13;10489989;28;1953;-69
2022/01/13 03:05:43;;;;;;;;;;;-1.10;99.90;;;-2.49;100.00;97712.72;10488919;28;2620;-69
2022/01/13 03:10:46;;;;;;;;;;;-1.30;99.90;;;-2.65;100.00;97721.25;10489810;28;1934;-68
2022/01/13 03:15:49;;;;;;;;;;;-1.40;99.90;;;-2.56;100.00;97727.44;10490883;28;2074;-68
2022/01/13 03:20:53;;;;;;;;;;;-1.40;99.90;;;-2.53;100.00;97732.44;10485166;28;1991;-68
2022/01/13 03:25:56;;;;;;;;;;;-1.40;99.90;;;-2.72;100.00;97738.59;10487898;28;1950;-69
2022/01/13 03:31:00;;;;;;;;;;;-1.50;99.90;;;-2.71;100.00;97729.72;10485352;28;1998;-67
2022/01/13 03:36:03;;;;;;;;;;;-1.60;99.90;;;-2.59;100.00;97727.75;10486666;28;1991;-68
2022/01/13 03:41:07;;;;;;;;;;;-1.50;99.90;;;-2.62;100.00;97717.50;10485975;28;1947;-67
2022/01/13 03:46:11;;;;;;;;;;;-1.50;99.90;;;-2.66;100.00;97710.88;10500282;28;2037;-68
2022/01/13 03:51:15;;;;;;;;;;;-1.50;99.90;;;-2.59;100.00;97709.31;10514723;28;2072;-69
2022/01/13 03:56:18;;;;;;;;;;;-1.50;99.90;;;-2.41;100.00;97704.13;10495095;22;2234;-69
2022/01/13 04:01:21;;;;;;;;;;;-1.40;99.90;;;-2.47;100.00;97706.38;10494973;28;2048;-68
2022/01/13 04:06:24;;;;;;;;;;;-1.30;99.90;;;-2.92;100.00;97715.94;10495498;28;1957;-68
2022/01/13 04:11:27;;;;;;;;;;;-1.40;99.90;;;-3.09;100.00;97692.00;10500282;28;2027;-69
2022/01/13 04:16:31;;;;;;;;;;;-1.80;99.90;;;-2.74;100.00;97693.13;10493084;28;2033;-69
2022/01/13 04:21:34;;;;;;;;;;;-1.70;99.90;;;-2.68;100.00;97697.00;10499118;28;1975;-69
2022/01/13 04:26:37;;;;;;;;;;;-1.60;99.90;;;-2.61;100.00;97708.63;10495049;28;1985;-69
2022/01/13 04:31:40;;;;;;;;;;;-1.50;99.90;;;-2.51;100.00;97715.53;10500003;28;1991;-68
2022/01/13 04:36:43;;;;;;;;;;;-1.40;99.90;;;-2.65;100.00;97726.53;10500776;28;1959;-68
2022/01/13 04:41:47;;;;;;;;;;;-1.50;99.90;;;-2.51;100.00;97725.22;10507866;28;1927;-69
2022/01/13 04:46:50;;;;;;;;;;;-1.40;99.90;;;-2.55;100.00;97726.47;10526716;28;1892;-69
2022/01/13 04:51:54;;;;;;;;;;;-1.40;99.90;;;-2.75;100.00;97721.28;10528048;28;1876;-68
2022/01/13 04:57:08;;;;;;;;;;;-1.50;99.90;;;-2.69;100.00;97700.63;10516375;28;1963;-68
2022/01/13 05:02:11;;;;;;;;;;;-1.50;99.90;;;-2.73;100.00;97700.91;10499142;28;2029;-69
2022/01/13 05:07:14;;;;;;;;;;;-1.50;99.90;;;-2.78;100.00;97708.41;10507837;28;1985;-70
2022/01/13 05:12:18;;;;;;;;;;;-1.60;99.90;;;-2.63;100.00;97707.94;10507425;28;1951;-70
2022/01/13 05:17:46;;;;;;;;;;;-1.60;99.90;;;-2.46;100.00;97709.84;10505405;28;2073;-70
2022/01/13 05:22:48;;;;;;;;;;;-1.40;99.90;;;-2.36;100.00;97717.69;10500856;28;1985;-70
2022/01/13 05:27:51;;;;;;;;;;;-1.30;99.90;;;-2.66;100.00;97726.66;10501113;28;2009;-69
2022/01/13 05:32:56;;;;;;;;;;;-1.40;99.90;;;-2.78;100.00;97715.47;10509726;28;1990;-69
2022/01/13 05:37:59;;;;;;;;;;;-1.50;99.90;;;-2.63;100.00;97721.09;10501720;28;1940;-69
2022/01/13 05:43:02;;;;;;;;;;;-1.50;99.90;;;-2.71;100.00;97729.72;10503761;28;1981;-69
2022/01/13 05:48:05;;;;;;;;;;;-1.50;99.90;;;-2.69;100.00;97737.47;10503864;28;1892;-70
2022/01/13 05:53:08;;;;;;;;;;;-1.50;99.90;;;-2.62;100.00;97730.66;10500647;28;2515;-68
2022/01/13 05:58:11;;;;;;;;;;;-1.50;99.90;;;-2.73;100.00;97729.88;10495402;28;2354;-70
2022/01/13 06:03:13;;;;;;;;;;;-1.50;99.90;;;-3.13;100.00;97739.75;10500510;28;2184;-69
2022/01/13 06:08:16;;;;;;;;;;;-1.80;99.90;;;-3.18;100.00;97753.34;10496328;28;1840;-71
2022/01/13 06:13:19;;;;;;;;;;;-2.00;99.90;;;-2.98;100.00;97764.69;10506070;28;1753;-69
2022/01/13 06:18:25;;;;;;;;;;;-1.90;99.90;;;-2.81;100.00;97766.56;10505051;28;1874;-68
2022/01/13 06:23:28;;;;;;;;;;;-1.80;99.90;;;-2.84;100.00;97766.88;10504921;28;1980;-69
2022/01/13 06:28:31;;;;;;;;;;;-1.70;99.90;;;-2.83;100.00;97763.28;10485518;28;1830;-69
2022/01/13 06:33:34;;;;;;;;;;;-1.70;99.90;;;-2.86;100.00;97760.06;10491487;28;1887;-70
2022/01/13 06:38:37;;;;;;;;;;;-1.70;99.90;;;-2.77;100.00;97773.22;10489159;28;1845;-68
2022/01/13 06:43:40;;;;;;;;;;;-1.70;99.90;;;-2.75;100.00;97775.72;10494625;28;1761;-69
2022/01/13 06:48:43;;;;;;;;;;;-1.60;99.90;;;-2.73;100.00;97782.53;10488838;28;1866;-69
2022/01/13 06:53:46;;;;;;;;;;;-1.60;99.90;;;-2.75;100.00;97773.09;10488376;28;1965;-69
2022/01/13 06:58:49;;;;;;;;;;;-1.60;99.90;;;-2.82;100.00;97769.38;10488911;28;2537;-69
2022/01/13 07:03:52;;;;;;;;;;;-1.60;99.90;;;-2.82;100.00;97790.41;10491647;28;1885;-69
2022/01/13 07:08:55;;;;;;;;;;;-1.60;99.90;;;-2.88;100.00;97786.53;10488799;28;1710;-69
2022/01/13 07:13:58;;;;;;;;;;;-1.70;99.90;;;-2.89;100.00;97784.06;10495631;28;1844;-69
2022/01/13 07:19:01;;;;;;;;;;;-1.70;99.90;;;-3.09;100.00;97783.25;10481422;28;1951;-71
2022/01/13 07:24:04;;;;;;;;;;;-1.80;99.90;;;-3.21;100.00;97795.69;10487757;28;1879;-71
2022/01/13 07:29:07;;;;;;;;;;;-1.90;99.90;;;-3.30;100.00;97796.53;10491324;28;1825;-72
2022/01/13 07:34:11;;;;;;;;;;;-2.00;99.90;;;-3.35;100.00;97799.56;10485605;28;1825;-71
2022/01/13 07:39:14;;;;;;;;;;;-2.10;99.90;;;-3.32;100.00;97804.53;10489854;28;1906;-70
2022/01/13 07:44:18;;;;;;;;;;;-2.10;99.90;;;-3.30;100.00;97794.72;10495630;28;1871;-72
2022/01/13 07:49:21;;;;;;;;;;;-2.10;99.90;;;-3.17;100.00;97801.53;10482282;28;2046;-71
2022/01/13 07:54:25;;;;;;;;;;;-2.00;99.90;;;-3.13;100.00;97797.63;10497516;28;1958;-71
2022/01/13 07:59:33;;;;;;;;;;;-2.00;99.90;;;-3.14;100.00;97807.31;10494342;28;2020;-71
2022/01/13 08:04:36;;;;;;;;;;;-2.00;99.90;;;-3.08;100.00;97805.94;10490967;28;1841;-72
2022/01/13 08:09:39;;;;;;;;;;;-1.90;99.90;;;-2.85;100.00;97804.69;10502262;28;1833;-72
2022/01/13 08:14:42;;;;;;;;;;;-1.20;99.90;;;-2.48;100.00;97811.84;10502057;28;2314;-73
2022/01/13 08:19:48;;;;;;;;;;;-1.60;99.90;;;-2.33;99.69;97815.69;10497505;28;1905;-72
2022/01/13 08:24:53;;;;;;;;;;;-1.40;99.90;;;-2.12;99.13;97815.47;10505846;28;1900;-72
2022/01/13 08:29:56;;;;;;;;;;;-1.20;99.90;;;-2.22;98.08;97812.06;10503725;28;1924;-73
2022/01/13 08:34:59;;;;;;;;;;;-1.20;99.90;;;-2.20;97.46;97807.47;10501666;28;1958;-72
2022/01/13 08:40:02;;;;;;;;;;;-1.10;99.90;;;-2.21;96.90;97811.91;10503993;28;1993;-72
2022/01/13 08:45:06;;;;;;;;;;;-1.10;99.90;;;-2.25;97.71;97826.34;10505937;28;1848;-74
2022/01/13 08:50:09;;;;;;;;;;;-1.10;99.90;;;-2.30;97.00;97818.03;10507728;28;1992;-73
2022/01/13 08:55:12;;;;;;;;;;;-1.10;99.90;;;-2.33;98.69;97820.13;10512556;28;2339;-73
2022/01/13 09:00:15;;;;;;;;;;;-1.10;99.90;;;-2.20;97.09;97823.28;10499235;28;1979;-73
2022/01/13 09:05:18;;;;;;;;;;;-1.10;99.90;;;-2.41;98.97;97828.75;10495623;28;1864;-72
2022/01/13 09:10:21;;;;;;;;;;;-1.20;99.90;;;-2.29;96.99;97839.94;10508569;28;1960;-72
2022/01/13 09:15:33;;;;;;;;;;;-1.10;99.90;;;-2.13;96.51;97828.81;10496812;28;2228;-71
2022/01/13 09:20:35;;;;;;;;;;;-1.10;99.90;;;-2.10;97.58;97833.78;10500294;28;1969;-71
2022/01/13 09:25:39;;;;;;;;;;;-0.90;99.90;;;-2.27;99.30;97844.09;10484969;28;2375;-71
2022/01/13 09:30:42;;;;;;;;;;;-1.10;99.90;;;-2.21;98.40;97838.25;10493746;28;1841;-70
2022/01/13 09:35:45;;;;;;;;;;;-1.10;99.90;;;-1.88;97.15;97845.78;10500466;28;1820;-70
2022/01/13 09:40:48;;;;;;;;;;;-0.90;99.90;;;-2.21;98.71;97847.97;10505933;28;1909;-70
2022/01/13 09:45:51;;;;;;;;;;;-0.90;99.90;;;-2.12;99.39;97849.72;10492856;28;1907;-71
2022/01/13 09:50:55;;;;;;;;;;;-0.70;99.90;;;-2.02;98.70;97852.34;10493886;28;1896;-71
2022/01/13 09:55:58;;;;;;;;;;;-1.00;99.90;;;-2.02;96.98;97852.34;10525789;22;1827;-69
2022/01/13 10:01:01;;;;;;;;;;;-0.90;99.90;;;-2.12;98.07;97846.28;10499158;28;1903;-68
2022/01/13 10:06:09;;;;;;;;;;;-1.00;99.90;;;-2.32;98.92;97856.03;10508947;28;1928;-67
2022/01/13 10:11:11;;;;;;;;;;;-1.10;99.90;;;-2.35;99.54;97857.16;10504179;28;1871;-68
2022/01/13 10:16:24;;;;;;;;;;;-1.20;99.90;;;-2.20;98.50;97847.81;10494621;28;1948;-68
2022/01/13 10:21:27;;;;;;;;;;;-1.10;99.90;;;-2.30;98.88;97844.38;10490481;28;1971;-71
2022/01/13 10:26:30;;;;;;;;;;;-1.10;99.90;;;-2.01;97.58;97830.28;10490319;28;1858;-68
2022/01/13 10:31:33;;;;;;;;;;;-1.00;99.90;;;-2.03;96.47;97827.81;10505142;28;1858;-71
2022/01/13 10:36:36;;;;;;;;;;;-0.90;99.90;;;-1.96;96.57;97822.78;10501089;28;1903;-68
2022/01/13 10:42:01;;;;;;;;;;;-0.90;99.90;;;-1.97;97.49;97814.06;10499985;28;1983;-66
2022/01/13 10:47:02;;;;;;;;;;;-0.90;99.90;;;-1.99;97.50;97815.16;10498873;28;1902;-68
2022/01/13 10:52:05;;;;;;;;;;;-0.90;99.90;;;-1.83;97.23;97796.91;10491603;28;2557;-69
2022/01/13 10:57:08;;;;;;;;;;;-0.80;99.90;;;-1.70;95.36;97799.22;10505343;28;1920;-69
2022/01/13 11:02:11;;;;;;;;;;;-0.60;99.90;;;-1.60;94.29;97796.50;10500736;28;1910;-67
2022/01/13 11:07:15;;;;;;;;;;;-0.60;99.90;;;-1.48;94.79;97808.50;10502143;28;1933;-67
2022/01/13 11:12:18;;;;;;;;;;;-0.50;99.90;;;-1.26;92.88;97808.09;10518683;28;2585;-70
2022/01/13 11:17:21;;;;;;;;;;;-0.30;99.90;;;-1.16;91.64;97785.09;10535581;28;1984;-68
2022/01/13 11:22:24;;;;;;;;;;;-0.10;99.90;;;-1.06;90.31;97777.13;10533121;28;1961;-67
2022/01/13 11:27:27;;;;;;;;;;;-0.10;99.90;;;-0.66;88.34;97763.41;10535968;28;1762;-67
2022/01/13 11:32:30;;;;;;;;;;;0.20;99.90;;;-0.76;87.71;97752.13;10529670;28;1753;-67
2022/01/13 11:37:34;;;;;;;;;;;0.30;99.90;;;-0.47;87.01;97750.97;10528849;28;1837;-68
2022/01/13 11:42:38;;;;;;;;;;;0.40;99.90;;;-0.35;84.49;97762.94;10537381;28;1943;-66
2022/01/13 11:47:41;;;;;;;;;;;0.60;99.90;;;-0.36;83.68;97761.28;10536482;28;1860;-66
2022/01/13 11:52:47;;;;;;;;;;;0.70;99.90;;;-0.39;84.41;97751.84;10525457;28;1890;-66
2022/01/13 11:57:51;;;;;;;;;;;0.70;99.90;;;-0.44;84.07;97740.13;10530352;28;1716;-66
2022/01/13 12:02:55;;;;;;;;;;;0.70;99.90;;;-0.31;83.06;97722.03;10518574;28;1894;-66
2022/01/13 12:07:58;;;;;;;;;;;0.70;99.90;;;-0.23;82.04;97735.28;10517971;28;1909;-69
2022/01/13 12:13:01;;;;;;;;;;;0.80;99.90;;;-0.19;82.35;97727.84;10511740;28;1858;-68
2022/01/13 12:18:05;;;;;;;;;;;0.90;99.90;;;-0.06;83.04;97713.22;10526314;28;1887;-68
2022/01/13 12:23:17;;;;;;;;;;;1.00;99.90;;;-0.05;82.37;97717.50;10516425;28;1898;-68
2022/01/13 12:28:19;;;;;;;;;;;1.00;99.90;;;-0.22;83.98;97725.53;10505958;28;2030;-67
2022/01/13 12:33:22;;;;;;;;;;;0.90;99.90;;;-0.32;84.34;97725.63;10496885;28;1933;-68
2022/01/13 12:38:26;;;;;;;;;;;0.80;99.90;;;-0.39;84.63;97732.53;10516966;28;1881;-68
2022/01/13 12:43:50;;;;;;;;;;;0.80;99.90;;;-0.46;84.86;97723.56;10502768;28;1985;-68
2022/01/13 12:48:53;;;;;;;;;;;0.70;99.90;;;-0.57;85.78;97724.69;10488257;28;1893;-68
2022/01/13 12:53:56;;;;;;;;;;;0.60;99.90;;;-0.39;85.87;97721.97;10493284;28;1785;-67
2022/01/13 12:58:59;;;;;;;;;;;0.60;99.90;;;-0.73;85.70;97717.47;10499335;28;1846;-68
2022/01/13 13:04:02;;;;;;;;;;;0.60;99.90;;;-0.56;85.90;97718.41;10496415;28;1967;-69
2022/01/13 13:09:05;;;;;;;;;;;0.60;99.90;;;-0.34;85.51;97715.22;10504003;28;2412;-68
2022/01/13 13:14:16;;;;;;;;;;;0.60;99.90;;;-0.43;84.18;97710.88;10509455;28;1664;-67
2022/01/13 13:19:18;;;;;;;;;;;0.70;99.90;;;-0.50;84.41;97717.78;10499758;28;1813;-69
2022/01/13 13:24:22;;;;;;;;;;;0.70;99.90;;;-0.51;84.04;97716.09;10514468;28;1977;-66
2022/01/13 13:29:25;;;;;;;;;;;0.70;99.90;;;-0.37;83.52;97710.25;10499042;28;1990;-67
2022/01/13 13:34:28;;;;;;;;;;;0.60;99.90;;;-0.21;82.62;97709.50;10504557;28;2731;-67
2022/01/13 13:39:31;;;;;;;;;;;0.80;99.90;;;-0.20;83.05;97711.16;10512008;28;1823;-68
2022/01/13 13:44:37;;;;;;;;;;;0.90;99.90;;;-0.12;83.03;97698.00;10510336;28;1975;-68
2022/01/13 13:49:41;;;;;;;;;;;0.90;99.90;;;0.02;82.87;97685.97;10488058;28;1769;-69
2022/01/13 13:54:48;;;;;;;;;;;1.00;99.90;;;-0.14;82.95;97688.53;10499446;28;1907;-67
2022/01/13 13:59:53;;;;;;;;;;;1.00;99.90;;;0.02;82.32;97687.78;10495289;28;1940;-68
2022/01/13 14:04:56;;;;;;;;;;;1.00;99.90;;;-0.01;82.34;97683.63;10492569;28;1997;-67
2022/01/13 14:09:59;;;;;;;;;;;1.10;99.90;;;0.01;82.33;97696.72;10492802;28;1909;-66
2022/01/13 14:15:02;;;;;;;;;;;1.10;99.90;;;0.02;81.39;97699.19;10493072;28;1874;-68
2022/01/13 14:20:05;;;;;;;;;;;1.10;99.90;;;0.03;80.58;97697.38;10488803;28;1996;-67
2022/01/13 14:25:08;;;;;;;;;;;1.10;99.90;;;-0.08;80.68;97704.59;10493586;28;1930;-69
2022/01/13 14:30:11;;;;;;;;;;;1.10;99.90;;;-0.24;81.71;97712.47;10499718;28;1830;-66
2022/01/13 14:35:14;;;;;;;;;;;0.90;99.90;;;-0.20;83.80;97716.44;10499966;28;1733;-66
2022/01/13 14:40:18;;;;;;;;;;;1.60;99.90;;;-0.35;85.67;97720.66;10490903;28;1867;-66
2022/01/13 14:45:22;;;;;;;;;;;0.90;99.90;;;-0.55;88.00;97718.25;10500279;28;1898;-67
2022/01/13 14:50:24;;;;;;;;;;;0.80;99.90;;;-0.50;87.73;97714.31;10493739;28;1923;-67
2022/01/13 14:55:28;;;;;;;;;;;0.60;99.90;;;-0.73;86.97;97711.38;10495514;28;1974;-66
2022/01/13 15:00:31;;;;;;;;;;;0.50;99.90;;;-0.92;87.49;97704.47;10501497;28;1928;-66
2022/01/13 15:05:34;;;;;;;;;;;0.40;99.90;;;-0.89;88.02;97718.19;10503883;28;1976;-67
2022/01/13 15:10:38;;;;;;;;;;;0.30;99.90;;;-0.89;89.07;97714.69;10503241;28;1917;-68
2022/01/13 15:15:41;;;;;;;;;;;0.30;99.90;;;-0.92;89.25;97709.75;10501430;28;1944;-67
2022/01/13 15:20:45;;;;;;;;;;;0.30;99.90;;;-1.02;89.80;97704.53;10489619;28;1709;-68
2022/01/13 15:25:48;;;;;;;;;;;0.20;99.90;;;-1.16;91.58;97694.53;10515245;28;1964;-66
2022/01/13 15:30:51;;;;;;;;;;;0.10;99.90;;;-1.21;93.42;97702.94;10529250;28;1930;-70
2022/01/13 15:35:54;;;;;;;;;;;0.00;99.90;;;-1.29;94.68;97702.84;10537891;28;1849;-68
2022/01/13 15:40:58;;;;;;;;;;;0.00;99.90;;;-1.51;97.65;97695.41;10544602;28;1728;-69
2022/01/13 15:46:05;;;;;;;;;;;-0.20;99.90;;;-1.70;99.09;97705.13;10538017;28;1715;-69
2022/01/13 15:51:13;;;;;;;;;;;-0.30;99.90;;;-1.71;100.00;97698.19;10527775;28;1730;-68
2022/01/13 15:56:16;;;;;;;;;;;-0.40;99.90;;;-1.70;100.00;97699.03;10522080;28;1902;-67
2022/01/13 16:01:19;;;;;;;;;;;-0.50;99.90;;;-1.72;100.00;97704.44;10514468;28;2017;-67
2022/01/13 16:06:23;;;;;;;;;;;-0.50;99.90;;;-1.79;100.00;97692.00;10520652;28;1878;-68
2022/01/13 16:11:26;;;;;;;;;;;-0.50;99.90;;;-1.87;100.00;97691.91;10536695;28;1939;-68
2022/01/13 16:16:29;;;;;;;;;;;-0.60;99.90;;;-1.84;100.00;97689.81;10540231;28;1745;-67
2022/01/13 16:21:31;;;;;;;;;;;-0.60;99.90;;;-1.87;100.00;97676.91;10539866;28;1903;-68
2022/01/13 16:26:34;;;;;;;;;;;-0.60;99.90;;;-1.81;100.00;97673.69;10535104;28;1857;-69
2022/01/13 16:31:37;;;;;;;;;;;-0.60;99.90;;;-1.80;100.00;97679.78;10519615;28;1932;-69
2022/01/13 16:36:40;;;;;;;;;;;-0.60;99.90;;;-1.80;100.00;97672.72;10503696;28;2395;-69
2022/01/13 16:41:44;;;;;;;;;;;-0.60;99.90;;;-1.64;100.00;97672.06;10509292;28;1891;-67
2022/01/13 16:46:47;;;;;;;;;;;-0.50;99.90;;;-1.60;100.00;97673.38;10524700;28;2153;-69
2022/01/13 16:51:50;;;;;;;;;;;-0.40;99.90;;;-1.56;100.00;97658.94;10530144;28;1940;-67
2022/01/13 16:56:52;;;;;;;;;;;-0.40;99.90;;;-1.51;100.00;97666.41;10535210;28;1849;-68
2022/01/13 17:01:56;;;;;;;;;;;-0.30;99.90;;;-1.42;100.00;97665.47;10534836;28;1899;-67
2022/01/13 17:07:02;;;;;;;;;;;-0.30;99.90;;;-1.47;100.00;97658.00;10539623;28;1850;-67
2022/01/13 17:12:05;;;;;;;;;;;-0.20;99.90;;;-1.49;100.00;97653.88;10519826;28;1879;-68
2022/01/13 17:17:08;;;;;;;;;;;-0.30;99.90;;;-1.50;100.00;97657.50;10524119;28;2427;-68
2022/01/13 17:22:11;;;;;;;;;;;-0.10;99.90;;;-1.45;100.00;97655.25;10507003;28;1990;-68
2022/01/13 17:27:15;;;;;;;;;;;-0.30;99.90;;;-1.50;100.00;97662.78;10498767;28;1951;-67
2022/01/13 17:32:18;;;;;;;;;;;-0.30;99.90;;;-1.47;100.00;97668.56;10489043;28;1849;-68
2022/01/13 17:37:20;;;;;;;;;;;-0.30;99.90;;;-1.48;100.00;97661.63;10500372;28;2047;-67
2022/01/13 17:42:23;;;;;;;;;;;-0.30;99.90;;;-1.47;100.00;97665.09;10496915;28;1967;-66
2022/01/13 17:47:27;;;;;;;;;;;-0.20;99.90;;;-1.43;100.00;97669.94;10517719;28;1869;-66
2022/01/13 17:52:29;;;;;;;;;;;-0.30;99.90;;;-1.52;100.00;97662.94;10491930;28;1889;-67
2022/01/13 17:57:32;;;;;;;;;;;-0.30;99.90;;;-1.56;100.00;97668.66;10505231;28;1879;-66
2022/01/13 18:02:35;;;;;;;;;;;-0.30;99.90;;;-1.55;100.00;97659.75;10531690;28;1945;-64
2022/01/13 18:07:38;;;;;;;;;;;-0.30;99.90;;;-1.59;100.00;97663.66;10488555;28;1957;-66
2022/01/13 18:12:44;;;;;;;;;;;-0.40;99.90;;;-1.73;100.00;97657.13;10493643;28;1933;-70
2022/01/13 18:17:48;;;;;;;;;;;-0.40;99.90;;;-1.75;100.00;97644.09;10486323;28;1863;-67
2022/01/13 18:22:51;;;;;;;;;;;-0.50;99.90;;;-1.75;100.00;97633.53;10490163;28;1967;-69
2022/01/13 18:27:54;;;;;;;;;;;-0.50;99.90;;;-1.78;100.00;97628.59;10493041;28;1869;-67
2022/01/13 18:32:57;;;;;;;;;;;-0.60;99.90;;;-1.71;100.00;97628.81;10494046;28;1933;-69
2022/01/13 18:38:09;;;;;;;;;;;-0.50;99.90;;;-1.67;100.00;97630.97;10496386;28;1993;-66
2022/01/13 18:43:13;;;;;;;;;;;-0.50;99.90;;;-1.67;100.00;97630.97;10501696;28;2079;-67
2022/01/13 18:48:16;;;;;;;;;;;-0.40;99.90;;;-1.72;100.00;97640.31;10491499;28;1858;-67
2022/01/13 18:53:21;;;;;;;;;;;-0.50;99.90;;;-1.77;100.00;97645.22;10493114;28;1986;-67
2022/01/13 18:58:24;;;;;;;;;;;-0.50;99.90;;;-1.81;100.00;97649.13;10494411;28;1861;-69
2022/01/13 19:03:28;;;;;;;;;;;-0.60;99.90;;;-1.95;100.00;97642.59;10489885;28;2562;-68
2022/01/13 19:08:31;;;;;;;;;;;-0.70;99.90;;;-2.00;100.00;97647.47;10480638;28;1769;-67
2022/01/13 19:13:35;;;;;;;;;;;-0.70;99.90;;;-2.06;100.00;97645.41;10498870;28;1536;-69
2022/01/13 19:18:40;;;;;;;;;;;-0.30;99.90;;;-2.17;100.00;97634.09;10496588;28;1834;-68
2022/01/13 19:23:47;;;;;;;;;;;-0.80;99.90;;;-2.19;100.00;97641.34;10484845;28;1910;-68
2022/01/13 19:28:50;;;;;;;;;;;-0.90;99.90;;;-2.30;100.00;97632.81;10484927;28;1825;-68
2022/01/13 19:33:53;;;;;;;;;;;-1.00;99.90;;;-2.37;100.00;97637.00;10502710;28;1844;-66
2022/01/13 19:38:57;;;;;;;;;;;-1.10;99.90;;;-2.55;100.00;97647.47;10495541;28;1955;-67
2022/01/13 19:44:00;;;;;;;;;;;-1.20;99.90;;;-2.74;100.00;97646.59;10491792;28;1982;-66
2022/01/13 19:49:03;;;;;;;;;;;-1.40;99.90;;;-2.84;100.00;97650.25;10497589;28;1845;-68
2022/01/13 19:54:06;;;;;;;;;;;-1.60;99.90;;;-2.91;100.00;97660.50;10501414;28;1915;-68
2022/01/13 19:59:12;;;;;;;;;;;-1.60;99.90;;;-3.01;100.00;97664.97;10499098;28;1859;-68
2022/01/13 20:04:15;;;;;;;;;;;-1.80;99.90;;;-3.14;100.00;97665.28;10491650;28;1914;-66
2022/01/13 20:09:18;;;;;;;;;;;-1.80;99.90;;;-3.12;100.00;97663.31;10491535;28;1853;-66
2022/01/13 20:14:21;;;;;;;;;;;-1.90;99.90;;;-3.22;100.00;97666.97;10501607;28;1825;-66
2022/01/13 20:19:24;;;;;;;;;;;-1.90;99.90;;;-3.28;100.00;97661.28;10499368;28;1822;-68
2022/01/13 20:24:28;;;;;;;;;;;-2.00;99.90;;;-3.26;100.00;97655.88;10506911;28;1963;-66
2022/01/13 20:29:31;;;;;;;;;;;-2.00;99.90;;;-3.16;100.00;97655.88;10492513;28;1832;-67
2022/01/13 20:34:36;;;;;;;;;;;-2.00;99.90;;;-3.07;100.00;97647.13;10506521;28;1933;-69
2022/01/13 20:39:39;;;;;;;;;;;-1.90;99.90;;;-3.10;100.00;97632.47;10523997;28;1848;-68
2022/01/13 20:44:43;;;;;;;;;;;-1.80;99.90;;;-3.03;100.00;97625.66;10526698;28;1981;-68
2022/01/13 20:49:47;;;;;;;;;;;-1.90;99.90;;;-2.98;100.00;97617.34;10513716;28;1894;-69
2022/01/13 20:54:52;;;;;;;;;;;-1.80;99.90;;;-3.03;100.00;97614.28;10507049;28;2273;-65
2022/01/13 20:59:55;;;;;;;;;;;-1.80;99.90;;;-3.05;100.00;97606.56;10510879;28;1924;-68
2022/01/13 21:04:58;;;;;;;;;;;-1.80;99.90;;;-2.99;100.00;97597.22;10504982;28;1978;-67
2022/01/13 21:10:01;;;;;;;;;;;-1.80;99.90;;;-2.86;100.00;97604.81;10512033;28;2129;-68
2022/01/13 21:15:04;;;;;;;;;;;-1.70;99.90;;;-2.82;100.00;97595.66;10498435;28;1942;-68
2022/01/13 21:20:08;;;;;;;;;;;-1.70;99.90;;;-2.85;100.00;97596.78;10499435;28;1892;-68
2022/01/13 21:25:11;;;;;;;;;;;-1.70;99.90;;;-2.91;100.00;97586.84;10513626;28;1898;-69
2022/01/13 21:30:14;;;;;;;;;;;-1.70;99.90;;;-2.93;100.00;97591.38;10516842;28;1946;-68
2022/01/13 21:35:17;;;;;;;;;;;-1.70;99.90;;;-3.01;100.00;97586.84;10516529;28;1904;-68
2022/01/13 21:40:20;;;;;;;;;;;-1.70;99.90;;;-3.04;100.00;97587.16;10513426;28;1856;-65
2022/01/13 21:45:24;;;;;;;;;;;-1.80;99.90;;;-2.99;100.00;97584.06;10519942;28;1898;-66
2022/01/13 21:50:27;;;;;;;;;;;-1.80;99.90;;;-2.94;100.00;97583.66;10545279;28;1929;-68
2022/01/13 21:55:48;;;;;;;;;;;-1.80;99.90;;;-3.04;100.00;97581.06;10514875;28;1901;-69
2022/01/13 22:00:52;;;;;;;;;;;-1.80;99.90;;;-3.05;100.00;97568.91;10498574;28;1910;-68
2022/01/13 22:05:54;;;;;;;;;;;-1.80;99.90;;;-2.97;100.00;97562.91;10506466;28;1976;-66
2022/01/13 22:11:05;;;;;;;;;;;-1.80;99.90;;;-2.94;100.00;97562.59;10526639;28;2052;-71
2022/01/13 22:16:08;;;;;;;;;;;-1.70;99.90;;;-2.88;100.00;97560.22;10525461;28;1922;-68
2022/01/13 22:21:13;;;;;;;;;;;-1.70;99.90;;;-2.84;100.00;97550.25;10509506;28;1918;-63
2022/01/13 22:26:16;;;;;;;;;;;-1.60;99.90;;;-2.73;100.00;97555.31;10495821;28;1937;-68
2022/01/13 22:31:19;;;;;;;;;;;-1.40;99.90;;;-2.75;100.00;97550.16;10503276;28;1891;-67
2022/01/13 22:36:23;;;;;;;;;;;-1.50;99.90;;;-2.76;100.00;97551.16;10498737;28;2370;-66
2022/01/13 22:41:26;;;;;;;;;;;-1.50;99.90;;;-2.77;100.00;97557.41;10508181;28;1857;-68
2022/01/13 22:46:29;;;;;;;;;;;-1.50;99.90;;;-2.69;100.00;97543.50;10511599;28;1980;-63
2022/01/13 22:51:32;;;;;;;;;;;-1.50;99.90;;;-2.66;100.00;97555.56;10513523;28;1867;-66
2022/01/13 22:56:35;;;;;;;;;;;-1.50;99.90;;;-2.80;100.00;97539.28;10493671;28;1877;-66
2022/01/13 23:01:38;;;;;;;;;;;-1.50;99.90;;;-2.94;100.00;97536.28;10493280;28;2007;-67
2022/01/13 23:06:42;;;;;;;;;;;-1.70;99.90;;;-2.88;100.00;97528.63;10503327;28;2544;-68
2022/01/13 23:11:45;;;;;;;;;;;-1.70;99.90;;;-2.88;100.00;97527.81;10498787;28;1876;-66